sensor_id;sensor_type;location;lat;lon;timestamp;P1;durP1;ratioP1;P2;durP2;ratioP2
40967;SDS011;57377;45.130;6.038;2023-02-15T00:25:52;21.75;;;9.25;;
40967;SDS011;57377;45.130;6.038;2023-02-15T01:12:37;91.47;;;39.63;;
40967;SDS011;57377;45.130;6.038;2023-02-15T01:15:22;34.50;;;16.40;;
40967;SDS011;57377;45.130;6.038;2023-02-15T01:18:22;24.63;;;12.30;;
40967;SDS011;57377;45.130;6.038;2023-02-15T01:20:53;64.10;;;29.08;;
40967;SDS011;57377;45.130;6.038;2023-02-15T01:23:18;51.95;;;25.25;;
40967;SDS011;57377;45.130;6.038;2023-02-15T01:25:44;46.47;;;22.92;;
40967;SDS011;57377;45.130;6.038;2023-02-15T01:28:10;20.23;;;8.60;;
40967;SDS011;57377;45.130;6.038;2023-02-15T01:30:35;24.55;;;10.52;;
40967;SDS011;57377;45.130;6.038;2023-02-15T01:33:07;5.15;;;2.30;;
40967;SDS011;57377;45.130;6.038;2023-02-15T01:35:44;4.35;;;2.20;;
40967;SDS011;57377;45.130;6.038;2023-02-15T01:38:28;5.47;;;1.65;;
40967;SDS011;57377;45.130;6.038;2023-02-15T01:41:59;3.22;;;1.20;;
40967;SDS011;57377;45.130;6.038;2023-02-15T01:45:02;5.85;;;1.17;;
40967;SDS011;57377;45.130;6.038;2023-02-15T01:54:20;4.05;;;1.00;;
40967;SDS011;57377;45.130;6.038;2023-02-15T01:57:00;5.15;;;2.55;;
40967;SDS011;57377;45.130;6.038;2023-02-15T01:59:47;11.80;;;5.00;;
40967;SDS011;57377;45.130;6.038;2023-02-15T02:02:25;7.88;;;2.22;;
40967;SDS011;57377;45.130;6.038;2023-02-15T02:04:54;6.65;;;2.10;;
40967;SDS011;57377;45.130;6.038;2023-02-15T02:12:01;39.70;;;15.70;;
40967;SDS011;57377;45.130;6.038;2023-02-15T02:14:55;38.55;;;13.40;;
40967;SDS011;57377;45.130;6.038;2023-02-15T02:48:35;27.25;;;13.27;;
40967;SDS011;57377;45.130;6.038;2023-02-15T02:51:01;19.58;;;9.85;;
40967;SDS011;57377;45.130;6.038;2023-02-15T02:53:27;5.88;;;3.33;;
40967;SDS011;57377;45.130;6.038;2023-02-15T02:55:56;3.78;;;1.88;;
40967;SDS011;57377;45.130;6.038;2023-02-15T03:00:57;1.58;;;1.00;;
40967;SDS011;57377;45.130;6.038;2023-02-15T03:03:32;3.63;;;1.00;;
40967;SDS011;57377;45.130;6.038;2023-02-15T03:06:03;1.95;;;0.93;;
40967;SDS011;57377;45.130;6.038;2023-02-15T03:08:34;2.15;;;0.70;;
40967;SDS011;57377;45.130;6.038;2023-02-15T03:11:03;1.92;;;0.95;;
40967;SDS011;57377;45.130;6.038;2023-02-15T03:13:29;2.25;;;1.10;;
40967;SDS011;57377;45.130;6.038;2023-02-15T03:15:55;2.90;;;1.05;;
40967;SDS011;57377;45.130;6.038;2023-02-15T03:18:47;3.30;;;1.10;;
40967;SDS011;57377;45.130;6.038;2023-02-15T03:21:24;2.28;;;0.70;;
40967;SDS011;57377;45.130;6.038;2023-02-15T03:23:59;2.17;;;0.75;;
40967;SDS011;57377;45.130;6.038;2023-02-15T03:26:29;1.50;;;0.60;;
40967;SDS011;57377;45.130;6.038;2023-02-15T03:28:55;8.30;;;4.80;;
40967;SDS011;57377;45.130;6.038;2023-02-15T03:31:24;3.13;;;1.95;;
40967;SDS011;57377;45.130;6.038;2023-02-15T03:33:55;2.72;;;1.75;;
40967;SDS011;57377;45.130;6.038;2023-02-15T03:39:32;23.20;;;11.73;;
40967;SDS011;57377;45.130;6.038;2023-02-15T03:42:04;4.32;;;2.42;;
40967;SDS011;57377;45.130;6.038;2023-02-15T03:44:41;19.70;;;9.32;;
40967;SDS011;57377;45.130;6.038;2023-02-15T03:47:13;15.25;;;7.93;;
40967;SDS011;57377;45.130;6.038;2023-02-15T03:49:43;10.75;;;5.68;;
40967;SDS011;57377;45.130;6.038;2023-02-15T03:52:13;5.10;;;3.33;;
40967;SDS011;57377;45.130;6.038;2023-02-15T03:54:41;6.93;;;2.80;;
40967;SDS011;57377;45.130;6.038;2023-02-15T03:57:07;5.25;;;2.70;;
40967;SDS011;57377;45.130;6.038;2023-02-15T03:59:54;7.97;;;2.60;;
40967;SDS011;57377;45.130;6.038;2023-02-15T04:02:45;4.65;;;2.75;;
40967;SDS011;57377;45.130;6.038;2023-02-15T04:05:20;4.65;;;2.83;;
40967;SDS011;57377;45.130;6.038;2023-02-15T04:07:46;3.10;;;1.90;;
40967;SDS011;57377;45.130;6.038;2023-02-15T04:10:11;8.60;;;2.40;;
40967;SDS011;57377;45.130;6.038;2023-02-15T04:12:55;6.13;;;1.80;;
40967;SDS011;57377;45.130;6.038;2023-02-15T04:15:21;5.47;;;1.95;;
40967;SDS011;57377;45.130;6.038;2023-02-15T04:18:05;1.30;;;0.73;;
40967;SDS011;57377;45.130;6.038;2023-02-15T04:20:30;3.97;;;1.58;;
40967;SDS011;57377;45.130;6.038;2023-02-15T04:23:14;3.35;;;1.20;;
40967;SDS011;57377;45.130;6.038;2023-02-15T04:25:58;3.63;;;0.90;;
40967;SDS011;57377;45.130;6.038;2023-02-15T04:28:23;2.50;;;0.80;;
40967;SDS011;57377;45.130;6.038;2023-02-15T04:30:49;1.35;;;0.82;;
40967;SDS011;57377;45.130;6.038;2023-02-15T04:33:14;2.05;;;0.85;;
40967;SDS011;57377;45.130;6.038;2023-02-15T04:35:40;2.30;;;0.95;;
40967;SDS011;57377;45.130;6.038;2023-02-15T04:38:05;1.48;;;0.77;;
40967;SDS011;57377;45.130;6.038;2023-02-15T04:40:30;3.20;;;0.80;;
40967;SDS011;57377;45.130;6.038;2023-02-15T04:42:56;1.35;;;0.70;;
40967;SDS011;57377;45.130;6.038;2023-02-15T04:45:21;1.95;;;0.80;;
40967;SDS011;57377;45.130;6.038;2023-02-15T04:47:47;2.40;;;0.70;;
40967;SDS011;57377;45.130;6.038;2023-02-15T04:50:12;4.63;;;2.47;;
40967;SDS011;57377;45.130;6.038;2023-02-15T04:52:37;3.55;;;2.13;;
40967;SDS011;57377;45.130;6.038;2023-02-15T04:55:03;3.15;;;1.20;;
40967;SDS011;57377;45.130;6.038;2023-02-15T04:57:29;3.03;;;1.27;;
40967;SDS011;57377;45.130;6.038;2023-02-15T04:59:54;6.32;;;1.15;;
40967;SDS011;57377;45.130;6.038;2023-02-15T05:02:19;3.40;;;0.85;;
40967;SDS011;57377;45.130;6.038;2023-02-15T05:04:45;2.53;;;0.80;;
40967;SDS011;57377;45.130;6.038;2023-02-15T05:07:10;4.60;;;1.00;;
40967;SDS011;57377;45.130;6.038;2023-02-15T05:09:36;2.50;;;1.13;;
40967;SDS011;57377;45.130;6.038;2023-02-15T05:12:01;2.30;;;1.20;;
40967;SDS011;57377;45.130;6.038;2023-02-15T05:14:26;2.58;;;0.80;;
40967;SDS011;57377;45.130;6.038;2023-02-15T05:16:52;3.25;;;0.80;;
40967;SDS011;57377;45.130;6.038;2023-02-15T05:19:18;4.72;;;0.80;;
40967;SDS011;57377;45.130;6.038;2023-02-15T05:21:44;1.35;;;0.85;;
40967;SDS011;57377;45.130;6.038;2023-02-15T05:24:09;2.38;;;0.90;;
40967;SDS011;57377;45.130;6.038;2023-02-15T05:26:53;2.70;;;1.50;;
40967;SDS011;57377;45.130;6.038;2023-02-15T05:29:37;1.27;;;0.73;;
40967;SDS011;57377;45.130;6.038;2023-02-15T05:32:02;2.35;;;1.35;;
40967;SDS011;57377;45.130;6.038;2023-02-15T05:34:29;2.88;;;1.75;;
40967;SDS011;57377;45.130;6.038;2023-02-15T05:36:54;2.03;;;0.85;;
40967;SDS011;57377;45.130;6.038;2023-02-15T05:39:19;1.98;;;1.02;;
40967;SDS011;57377;45.130;6.038;2023-02-15T05:41:45;2.17;;;1.13;;
40967;SDS011;57377;45.130;6.038;2023-02-15T05:44:10;4.35;;;1.67;;
40967;SDS011;57377;45.130;6.038;2023-02-15T05:46:35;9.82;;;3.13;;
40967;SDS011;57377;45.130;6.038;2023-02-15T05:49:01;9.68;;;4.88;;
40967;SDS011;57377;45.130;6.038;2023-02-15T05:51:26;3.88;;;1.55;;
40967;SDS011;57377;45.130;6.038;2023-02-15T05:53:52;5.47;;;0.85;;
40967;SDS011;57377;45.130;6.038;2023-02-15T05:56:17;3.03;;;1.13;;
40967;SDS011;57377;45.130;6.038;2023-02-15T05:58:42;2.03;;;0.85;;
40967;SDS011;57377;45.130;6.038;2023-02-15T06:01:09;1.00;;;0.90;;
40967;SDS011;57377;45.130;6.038;2023-02-15T06:03:34;3.63;;;0.90;;
40967;SDS011;57377;45.130;6.038;2023-02-15T06:06:00;3.15;;;0.80;;
40967;SDS011;57377;45.130;6.038;2023-02-15T06:08:25;2.95;;;0.73;;
40967;SDS011;57377;45.130;6.038;2023-02-15T06:10:50;4.45;;;0.88;;
40967;SDS011;57377;45.130;6.038;2023-02-15T06:13:16;2.33;;;0.60;;
40967;SDS011;57377;45.130;6.038;2023-02-15T06:15:41;2.78;;;0.70;;
40967;SDS011;57377;45.130;6.038;2023-02-15T06:18:06;2.15;;;0.70;;
40967;SDS011;57377;45.130;6.038;2023-02-15T06:20:32;1.98;;;0.80;;
40967;SDS011;57377;45.130;6.038;2023-02-15T06:22:57;2.17;;;0.70;;
40967;SDS011;57377;45.130;6.038;2023-02-15T06:25:22;0.60;;;0.50;;
40967;SDS011;57377;45.130;6.038;2023-02-15T06:27:49;2.53;;;0.70;;
40967;SDS011;57377;45.130;6.038;2023-02-15T06:30:14;4.30;;;0.80;;
40967;SDS011;57377;45.130;6.038;2023-02-15T06:32:40;1.17;;;0.65;;
40967;SDS011;57377;45.130;6.038;2023-02-15T06:35:06;2.33;;;0.73;;
40967;SDS011;57377;45.130;6.038;2023-02-15T06:37:31;2.00;;;0.75;;
40967;SDS011;57377;45.130;6.038;2023-02-15T06:39:57;2.67;;;0.77;;
40967;SDS011;57377;45.130;6.038;2023-02-15T06:42:22;2.53;;;0.80;;
40967;SDS011;57377;45.130;6.038;2023-02-15T06:44:48;6.72;;;1.08;;
40967;SDS011;57377;45.130;6.038;2023-02-15T06:47:13;12.15;;;5.70;;
40967;SDS011;57377;45.130;6.038;2023-02-15T06:49:39;12.35;;;6.72;;
40967;SDS011;57377;45.130;6.038;2023-02-15T06:52:04;6.50;;;2.50;;
40967;SDS011;57377;45.130;6.038;2023-02-15T06:54:30;3.22;;;1.60;;
40967;SDS011;57377;45.130;6.038;2023-02-15T06:56:55;1.60;;;0.80;;
40967;SDS011;57377;45.130;6.038;2023-02-15T06:59:21;2.53;;;0.93;;
40967;SDS011;57377;45.130;6.038;2023-02-15T07:01:47;3.40;;;1.52;;
40967;SDS011;57377;45.130;6.038;2023-02-15T07:04:12;9.73;;;3.20;;
40967;SDS011;57377;45.130;6.038;2023-02-15T07:06:38;7.53;;;2.72;;
40967;SDS011;57377;45.130;6.038;2023-02-15T07:09:03;8.45;;;3.05;;
40967;SDS011;57377;45.130;6.038;2023-02-15T07:11:30;4.75;;;2.60;;
40967;SDS011;57377;45.130;6.038;2023-02-15T07:14:14;4.68;;;1.80;;
40967;SDS011;57377;45.130;6.038;2023-02-15T07:16:39;3.53;;;1.35;;
40967;SDS011;57377;45.130;6.038;2023-02-15T07:19:05;5.07;;;1.50;;
40967;SDS011;57377;45.130;6.038;2023-02-15T07:21:30;5.57;;;3.00;;
40967;SDS011;57377;45.130;6.038;2023-02-15T07:23:56;9.07;;;1.92;;
40967;SDS011;57377;45.130;6.038;2023-02-15T07:26:22;3.58;;;1.33;;
40967;SDS011;57377;45.130;6.038;2023-02-15T07:28:48;4.85;;;1.10;;
40967;SDS011;57377;45.130;6.038;2023-02-15T07:31:14;3.38;;;1.10;;
40967;SDS011;57377;45.130;6.038;2023-02-15T07:33:39;5.43;;;1.15;;
40967;SDS011;57377;45.130;6.038;2023-02-15T07:36:04;1.98;;;0.95;;
40967;SDS011;57377;45.130;6.038;2023-02-15T07:38:32;2.40;;;1.00;;
40967;SDS011;57377;45.130;6.038;2023-02-15T07:41:04;2.67;;;1.30;;
40967;SDS011;57377;45.130;6.038;2023-02-15T07:43:32;3.30;;;1.33;;
40967;SDS011;57377;45.130;6.038;2023-02-15T07:46:02;3.20;;;1.20;;
40967;SDS011;57377;45.130;6.038;2023-02-15T07:48:29;3.25;;;1.20;;
40967;SDS011;57377;45.130;6.038;2023-02-15T07:50:58;9.70;;;1.30;;
40967;SDS011;57377;45.130;6.038;2023-02-15T07:53:24;3.92;;;1.38;;
40967;SDS011;57377;45.130;6.038;2023-02-15T07:55:49;3.65;;;2.15;;
40967;SDS011;57377;45.130;6.038;2023-02-15T07:58:15;3.08;;;1.80;;
40967;SDS011;57377;45.130;6.038;2023-02-15T08:00:40;4.15;;;1.05;;
40967;SDS011;57377;45.130;6.038;2023-02-15T08:03:26;3.50;;;0.82;;
40967;SDS011;57377;45.130;6.038;2023-02-15T08:05:57;1.75;;;1.13;;
40967;SDS011;57377;45.130;6.038;2023-02-15T08:08:24;3.83;;;1.10;;
40967;SDS011;57377;45.130;6.038;2023-02-15T08:11:00;2.60;;;1.38;;
40967;SDS011;57377;45.130;6.038;2023-02-15T08:13:47;3.10;;;1.20;;
40967;SDS011;57377;45.130;6.038;2023-02-15T08:16:21;1.48;;;1.00;;
40967;SDS011;57377;45.130;6.038;2023-02-15T08:18:48;4.20;;;1.20;;
40967;SDS011;57377;45.130;6.038;2023-02-15T08:21:13;1.95;;;1.00;;
40967;SDS011;57377;45.130;6.038;2023-02-15T08:23:39;2.13;;;1.20;;
40967;SDS011;57377;45.130;6.038;2023-02-15T08:26:04;1.70;;;0.80;;
40967;SDS011;57377;45.130;6.038;2023-02-15T08:28:30;4.93;;;1.55;;
40967;SDS011;57377;45.130;6.038;2023-02-15T08:30:56;22.75;;;4.25;;
40967;SDS011;57377;45.130;6.038;2023-02-15T08:33:29;17.38;;;3.78;;
40967;SDS011;57377;45.130;6.038;2023-02-15T08:35:54;15.02;;;3.33;;
40967;SDS011;57377;45.130;6.038;2023-02-15T08:38:20;4.93;;;2.08;;
40967;SDS011;57377;45.130;6.038;2023-02-15T08:40:45;5.47;;;2.38;;
40967;SDS011;57377;45.130;6.038;2023-02-15T08:43:11;6.88;;;1.52;;
40967;SDS011;57377;45.130;6.038;2023-02-15T08:45:36;3.13;;;1.40;;
40967;SDS011;57377;45.130;6.038;2023-02-15T08:48:01;6.00;;;1.42;;
40967;SDS011;57377;45.130;6.038;2023-02-15T08:50:27;3.58;;;1.35;;
40967;SDS011;57377;45.130;6.038;2023-02-15T08:52:52;3.75;;;1.45;;
40967;SDS011;57377;45.130;6.038;2023-02-15T08:55:18;3.08;;;1.13;;
40967;SDS011;57377;45.130;6.038;2023-02-15T08:57:43;7.00;;;2.20;;
40967;SDS011;57377;45.130;6.038;2023-02-15T09:00:10;4.97;;;1.90;;
40967;SDS011;57377;45.130;6.038;2023-02-15T09:02:37;8.32;;;2.53;;
40967;SDS011;57377;45.130;6.038;2023-02-15T09:05:02;5.90;;;2.25;;
40967;SDS011;57377;45.130;6.038;2023-02-15T09:07:28;4.03;;;2.05;;
40967;SDS011;57377;45.130;6.038;2023-02-15T09:09:54;5.53;;;1.85;;
40967;SDS011;57377;45.130;6.038;2023-02-15T09:12:19;6.45;;;2.72;;
40967;SDS011;57377;45.130;6.038;2023-02-15T09:14:45;5.22;;;1.98;;
40967;SDS011;57377;45.130;6.038;2023-02-15T09:17:11;11.38;;;4.07;;
40967;SDS011;57377;45.130;6.038;2023-02-15T09:19:36;9.40;;;3.53;;
40967;SDS011;57377;45.130;6.038;2023-02-15T09:22:01;10.68;;;3.60;;
40967;SDS011;57377;45.130;6.038;2023-02-15T09:24:27;5.28;;;1.65;;
40967;SDS011;57377;45.130;6.038;2023-02-15T09:26:52;5.50;;;1.88;;
40967;SDS011;57377;45.130;6.038;2023-02-15T09:29:17;3.17;;;1.17;;
40967;SDS011;57377;45.130;6.038;2023-02-15T09:31:45;2.23;;;1.07;;
40967;SDS011;57377;45.130;6.038;2023-02-15T09:34:12;4.47;;;0.70;;
40967;SDS011;57377;45.130;6.038;2023-02-15T09:36:41;3.40;;;1.10;;
40967;SDS011;57377;45.130;6.038;2023-02-15T09:39:10;2.03;;;0.88;;
40967;SDS011;57377;45.130;6.038;2023-02-15T09:44:17;1.83;;;0.90;;
40967;SDS011;57377;45.130;6.038;2023-02-15T09:49:57;2.63;;;0.98;;
40967;SDS011;57377;45.130;6.038;2023-02-15T10:08:55;1.63;;;0.70;;
40967;SDS011;57377;45.130;6.038;2023-02-15T10:12:08;1.33;;;0.70;;
40967;SDS011;57377;45.130;6.038;2023-02-15T10:14:43;2.70;;;0.73;;
40967;SDS011;57377;45.130;6.038;2023-02-15T10:33:38;7.97;;;0.63;;
40967;SDS011;57377;45.130;6.038;2023-02-15T10:36:08;5.95;;;1.10;;
40967;SDS011;57377;45.130;6.038;2023-02-15T10:41:26;4.75;;;0.80;;
40967;SDS011;57377;45.130;6.038;2023-02-15T10:55:13;1.88;;;0.60;;
40967;SDS011;57377;45.130;6.038;2023-02-15T11:00:27;1.40;;;0.63;;
40967;SDS011;57377;45.130;6.038;2023-02-15T11:06:00;2.83;;;0.70;;
40967;SDS011;57377;45.130;6.038;2023-02-15T11:08:31;7.35;;;1.00;;
40967;SDS011;57377;45.130;6.038;2023-02-15T11:11:01;4.60;;;0.70;;
40967;SDS011;57377;45.130;6.038;2023-02-15T11:13:33;1.70;;;0.70;;
40967;SDS011;57377;45.130;6.038;2023-02-15T11:16:05;1.35;;;0.82;;
40967;SDS011;57377;45.130;6.038;2023-02-15T11:18:41;6.45;;;0.88;;
40967;SDS011;57377;45.130;6.038;2023-02-15T11:23:43;1.75;;;0.63;;
40967;SDS011;57377;45.130;6.038;2023-02-15T11:26:14;6.38;;;0.68;;
40967;SDS011;57377;45.130;6.038;2023-02-15T11:28:49;1.77;;;0.70;;
40967;SDS011;57377;45.130;6.038;2023-02-15T11:31:21;1.67;;;0.70;;
40967;SDS011;57377;45.130;6.038;2023-02-15T11:33:57;1.67;;;0.68;;
40967;SDS011;57377;45.130;6.038;2023-02-15T11:36:25;2.10;;;0.65;;
40967;SDS011;57377;45.130;6.038;2023-02-15T11:38:56;2.67;;;0.80;;
40967;SDS011;57377;45.130;6.038;2023-02-15T11:41:28;5.03;;;0.82;;
40967;SDS011;57377;45.130;6.038;2023-02-15T11:46:30;2.55;;;0.70;;
40967;SDS011;57377;45.130;6.038;2023-02-15T11:48:56;3.63;;;1.20;;
40967;SDS011;57377;45.130;6.038;2023-02-15T11:51:21;7.15;;;1.08;;
40967;SDS011;57377;45.130;6.038;2023-02-15T11:53:48;2.92;;;0.80;;
40967;SDS011;57377;45.130;6.038;2023-02-15T11:56:23;6.95;;;1.92;;
40967;SDS011;57377;45.130;6.038;2023-02-15T11:58:52;4.88;;;1.42;;
40967;SDS011;57377;45.130;6.038;2023-02-15T12:04:17;1.25;;;0.90;;
40967;SDS011;57377;45.130;6.038;2023-02-15T12:10:00;1.75;;;0.77;;
40967;SDS011;57377;45.130;6.038;2023-02-15T12:12:32;3.47;;;1.00;;
40967;SDS011;57377;45.130;6.038;2023-02-15T12:15:00;1.83;;;1.13;;
40967;SDS011;57377;45.130;6.038;2023-02-15T12:23:03;1.77;;;0.98;;
40967;SDS011;57377;45.130;6.038;2023-02-15T12:26:14;3.63;;;1.05;;
40967;SDS011;57377;45.130;6.038;2023-02-15T12:28:38;2.38;;;1.02;;
40967;SDS011;57377;45.130;6.038;2023-02-15T12:31:40;3.25;;;0.65;;
40967;SDS011;57377;45.130;6.038;2023-02-15T12:34:07;5.85;;;1.10;;
40967;SDS011;57377;45.130;6.038;2023-02-15T12:36:43;1.58;;;0.60;;
40967;SDS011;57377;45.130;6.038;2023-02-15T12:39:19;4.63;;;1.08;;
40967;SDS011;57377;45.130;6.038;2023-02-15T12:44:28;2.08;;;0.77;;
40967;SDS011;57377;45.130;6.038;2023-02-15T12:47:02;3.65;;;1.02;;
40967;SDS011;57377;45.130;6.038;2023-02-15T12:49:33;1.45;;;0.90;;
40967;SDS011;57377;45.130;6.038;2023-02-15T12:52:01;1.92;;;0.70;;
40967;SDS011;57377;45.130;6.038;2023-02-15T12:54:29;2.88;;;1.33;;
40967;SDS011;57377;45.130;6.038;2023-02-15T12:56:55;3.40;;;1.30;;
40967;SDS011;57377;45.130;6.038;2023-02-15T12:59:22;7.78;;;3.28;;
40967;SDS011;57377;45.130;6.038;2023-02-15T13:01:48;14.15;;;5.82;;
40967;SDS011;57377;45.130;6.038;2023-02-15T13:04:26;3.85;;;1.70;;
40967;SDS011;57377;45.130;6.038;2023-02-15T13:11:56;1.98;;;1.20;;
40967;SDS011;57377;45.130;6.038;2023-02-15T13:14:25;1.88;;;0.85;;
40967;SDS011;57377;45.130;6.038;2023-02-15T13:16:56;1.52;;;0.75;;
40967;SDS011;57377;45.130;6.038;2023-02-15T13:19:57;1.65;;;0.68;;
40967;SDS011;57377;45.130;6.038;2023-02-15T13:22:25;5.55;;;0.90;;
40967;SDS011;57377;45.130;6.038;2023-02-15T13:24:57;4.38;;;0.50;;
40967;SDS011;57377;45.130;6.038;2023-02-15T13:27:33;1.25;;;0.60;;
40967;SDS011;57377;45.130;6.038;2023-02-15T13:30:03;1.60;;;0.88;;
40967;SDS011;57377;45.130;6.038;2023-02-15T13:32:43;2.20;;;1.10;;
40967;SDS011;57377;45.130;6.038;2023-02-15T13:35:13;5.85;;;1.60;;
40967;SDS011;57377;45.130;6.038;2023-02-15T13:40:18;8.05;;;1.20;;
40967;SDS011;57377;45.130;6.038;2023-02-15T13:42:50;4.45;;;1.13;;
40967;SDS011;57377;45.130;6.038;2023-02-15T14:12:40;5.45;;;1.92;;
40967;SDS011;57377;45.130;6.038;2023-02-15T14:15:24;4.10;;;1.75;;
40967;SDS011;57377;45.130;6.038;2023-02-15T14:17:59;4.47;;;2.08;;
40967;SDS011;57377;45.130;6.038;2023-02-15T14:23:30;4.50;;;2.17;;
40967;SDS011;57377;45.130;6.038;2023-02-15T14:31:50;5.60;;;2.78;;
40967;SDS011;57377;45.130;6.038;2023-02-15T14:34:37;5.78;;;2.55;;
40967;SDS011;57377;45.130;6.038;2023-02-15T14:37:44;11.70;;;2.85;;
40967;SDS011;57377;45.130;6.038;2023-02-15T14:40:33;5.45;;;2.90;;
40967;SDS011;57377;45.130;6.038;2023-02-15T14:48:53;10.82;;;3.10;;
40967;SDS011;57377;45.130;6.038;2023-02-15T14:56:43;7.95;;;3.05;;
40967;SDS011;57377;45.130;6.038;2023-02-15T15:01:52;9.30;;;3.20;;
40967;SDS011;57377;45.130;6.038;2023-02-15T15:04:29;9.80;;;4.22;;
40967;SDS011;57377;45.130;6.038;2023-02-15T15:07:03;12.20;;;3.67;;
40967;SDS011;57377;45.130;6.038;2023-02-15T15:09:31;9.10;;;3.55;;
40967;SDS011;57377;45.130;6.038;2023-02-15T15:14:45;6.55;;;3.53;;
40967;SDS011;57377;45.130;6.038;2023-02-15T15:17:12;9.07;;;3.83;;
40967;SDS011;57377;45.130;6.038;2023-02-15T15:20:36;7.03;;;3.80;;
40967;SDS011;57377;45.130;6.038;2023-02-15T15:25:59;12.20;;;3.97;;
40967;SDS011;57377;45.130;6.038;2023-02-15T15:46:02;13.10;;;4.63;;
40967;SDS011;57377;45.130;6.038;2023-02-15T15:48:28;9.52;;;4.07;;
40967;SDS011;57377;45.130;6.038;2023-02-15T15:51:03;8.02;;;4.05;;
40967;SDS011;57377;45.130;6.038;2023-02-15T15:53:50;10.23;;;4.07;;
40967;SDS011;57377;45.130;6.038;2023-02-15T15:56:24;12.23;;;4.55;;
40967;SDS011;57377;45.130;6.038;2023-02-15T16:01:30;11.32;;;4.78;;
40967;SDS011;57377;45.130;6.038;2023-02-15T16:04:01;10.65;;;4.30;;
40967;SDS011;57377;45.130;6.038;2023-02-15T16:06:27;16.10;;;4.20;;
40967;SDS011;57377;45.130;6.038;2023-02-15T16:11:43;11.35;;;4.18;;
40967;SDS011;57377;45.130;6.038;2023-02-15T16:14:12;9.15;;;3.60;;
40967;SDS011;57377;45.130;6.038;2023-02-15T16:16:46;7.75;;;3.30;;
40967;SDS011;57377;45.130;6.038;2023-02-15T16:19:17;9.88;;;3.78;;
40967;SDS011;57377;45.130;6.038;2023-02-15T16:21:46;8.35;;;3.55;;
40967;SDS011;57377;45.130;6.038;2023-02-15T16:24:28;6.40;;;3.35;;
40967;SDS011;57377;45.130;6.038;2023-02-15T16:29:45;19.63;;;4.95;;
40967;SDS011;57377;45.130;6.038;2023-02-15T16:32:18;23.70;;;11.57;;
40967;SDS011;57377;45.130;6.038;2023-02-15T16:37:19;24.40;;;14.23;;
40967;SDS011;57377;45.130;6.038;2023-02-15T16:39:48;32.38;;;20.63;;
40967;SDS011;57377;45.130;6.038;2023-02-15T16:42:14;27.92;;;12.70;;
40967;SDS011;57377;45.130;6.038;2023-02-15T16:44:41;20.58;;;7.65;;
40967;SDS011;57377;45.130;6.038;2023-02-15T16:47:15;15.27;;;8.18;;
40967;SDS011;57377;45.130;6.038;2023-02-15T16:49:44;8.02;;;3.75;;
40967;SDS011;57377;45.130;6.038;2023-02-15T16:52:12;6.32;;;3.80;;
40967;SDS011;57377;45.130;6.038;2023-02-15T16:54:43;7.18;;;3.15;;
40967;SDS011;57377;45.130;6.038;2023-02-15T16:57:18;4.30;;;2.60;;
40967;SDS011;57377;45.130;6.038;2023-02-15T16:59:46;16.38;;;3.85;;
40967;SDS011;57377;45.130;6.038;2023-02-15T17:02:16;10.65;;;2.95;;
40967;SDS011;57377;45.130;6.038;2023-02-15T17:04:44;15.55;;;3.42;;
40967;SDS011;57377;45.130;6.038;2023-02-15T17:07:18;8.88;;;3.75;;
40967;SDS011;57377;45.130;6.038;2023-02-15T17:09:55;8.27;;;3.50;;
40967;SDS011;57377;45.130;6.038;2023-02-15T17:15:26;21.80;;;10.23;;
40967;SDS011;57377;45.130;6.038;2023-02-15T17:17:56;12.73;;;3.55;;
40967;SDS011;57377;45.130;6.038;2023-02-15T17:20:35;34.08;;;15.23;;
40967;SDS011;57377;45.130;6.038;2023-02-15T17:23:03;51.75;;;22.52;;
40967;SDS011;57377;45.130;6.038;2023-02-15T17:25:34;55.97;;;24.70;;
40967;SDS011;57377;45.130;6.038;2023-02-15T17:28:02;41.70;;;15.73;;
40967;SDS011;57377;45.130;6.038;2023-02-15T17:30:33;30.30;;;13.18;;
40967;SDS011;57377;45.130;6.038;2023-02-15T17:33:02;40.65;;;16.98;;
40967;SDS011;57377;45.130;6.038;2023-02-15T17:35:29;30.20;;;13.70;;
40967;SDS011;57377;45.130;6.038;2023-02-15T17:38:04;30.40;;;12.43;;
40967;SDS011;57377;45.130;6.038;2023-02-15T17:43:09;7.75;;;2.72;;
40967;SDS011;57377;45.130;6.038;2023-02-15T17:45:36;7.20;;;2.90;;
40967;SDS011;57377;45.130;6.038;2023-02-15T17:48:08;9.05;;;2.97;;
40967;SDS011;57377;45.130;6.038;2023-02-15T17:50:41;13.73;;;7.10;;
40967;SDS011;57377;45.130;6.038;2023-02-15T17:53:07;11.40;;;4.07;;
40967;SDS011;57377;45.130;6.038;2023-02-15T17:55:33;47.22;;;18.67;;
40967;SDS011;57377;45.130;6.038;2023-02-15T18:00:41;71.75;;;29.60;;
40967;SDS011;57377;45.130;6.038;2023-02-15T18:03:29;94.90;;;35.45;;
40967;SDS011;57377;45.130;6.038;2023-02-15T18:06:32;121.80;;;45.63;;
40967;SDS011;57377;45.130;6.038;2023-02-15T18:09:18;101.22;;;38.10;;
40967;SDS011;57377;45.130;6.038;2023-02-15T18:12:22;43.72;;;16.17;;
40967;SDS011;57377;45.130;6.038;2023-02-15T18:14:55;63.95;;;25.40;;
40967;SDS011;57377;45.130;6.038;2023-02-15T18:17:23;40.13;;;13.15;;
40967;SDS011;57377;45.130;6.038;2023-02-15T18:19:53;20.73;;;7.88;;
40967;SDS011;57377;45.130;6.038;2023-02-15T18:22:19;12.73;;;4.88;;
40967;SDS011;57377;45.130;6.038;2023-02-15T18:24:45;14.10;;;5.53;;
40967;SDS011;57377;45.130;6.038;2023-02-15T18:27:12;18.38;;;7.05;;
40967;SDS011;57377;45.130;6.038;2023-02-15T18:29:39;7.13;;;3.55;;
40967;SDS011;57377;45.130;6.038;2023-02-15T18:32:18;5.28;;;2.42;;
40967;SDS011;57377;45.130;6.038;2023-02-15T18:34:49;16.00;;;4.05;;
40967;SDS011;57377;45.130;6.038;2023-02-15T18:37:17;12.38;;;4.72;;
40967;SDS011;57377;45.130;6.038;2023-02-15T18:39:45;18.92;;;8.05;;
40967;SDS011;57377;45.130;6.038;2023-02-15T18:42:21;25.83;;;7.63;;
40967;SDS011;57377;45.130;6.038;2023-02-15T18:44:56;16.75;;;6.07;;
40967;SDS011;57377;45.130;6.038;2023-02-15T18:47:23;16.30;;;5.63;;
40967;SDS011;57377;45.130;6.038;2023-02-15T18:49:48;20.90;;;8.77;;
40967;SDS011;57377;45.130;6.038;2023-02-15T18:52:18;16.42;;;5.82;;
40967;SDS011;57377;45.130;6.038;2023-02-15T18:54:46;10.25;;;4.00;;
40967;SDS011;57377;45.130;6.038;2023-02-15T18:57:14;19.55;;;6.95;;
40967;SDS011;57377;45.130;6.038;2023-02-15T18:59:40;24.70;;;8.50;;
40967;SDS011;57377;45.130;6.038;2023-02-15T19:02:13;18.40;;;7.90;;
40967;SDS011;57377;45.130;6.038;2023-02-15T19:04:40;13.35;;;5.43;;
40967;SDS011;57377;45.130;6.038;2023-02-15T19:07:10;11.57;;;5.20;;
40967;SDS011;57377;45.130;6.038;2023-02-15T19:09:51;20.60;;;7.65;;
40967;SDS011;57377;45.130;6.038;2023-02-15T19:12:18;15.73;;;6.10;;
40967;SDS011;57377;45.130;6.038;2023-02-15T19:14:43;11.90;;;4.97;;
40967;SDS011;57377;45.130;6.038;2023-02-15T19:17:16;13.05;;;5.35;;
40967;SDS011;57377;45.130;6.038;2023-02-15T19:19:44;10.32;;;3.17;;
40967;SDS011;57377;45.130;6.038;2023-02-15T19:24:48;5.93;;;3.25;;
40967;SDS011;57377;45.130;6.038;2023-02-15T19:27:23;11.63;;;3.70;;
40967;SDS011;57377;45.130;6.038;2023-02-15T19:29:51;8.90;;;2.67;;
40967;SDS011;57377;45.130;6.038;2023-02-15T19:32:17;5.43;;;2.65;;
40967;SDS011;57377;45.130;6.038;2023-02-15T19:34:43;4.88;;;2.85;;
40967;SDS011;57377;45.130;6.038;2023-02-15T19:37:13;9.80;;;2.70;;
40967;SDS011;57377;45.130;6.038;2023-02-15T19:39:47;10.85;;;4.75;;
40967;SDS011;57377;45.130;6.038;2023-02-15T19:42:16;17.70;;;7.25;;
40967;SDS011;57377;45.130;6.038;2023-02-15T19:44:49;14.70;;;6.40;;
40967;SDS011;57377;45.130;6.038;2023-02-15T19:47:15;14.13;;;3.95;;
40967;SDS011;57377;45.130;6.038;2023-02-15T19:49:41;13.43;;;6.20;;
40967;SDS011;57377;45.130;6.038;2023-02-15T19:52:18;11.45;;;3.80;;
40967;SDS011;57377;45.130;6.038;2023-02-15T19:54:55;13.17;;;4.60;;
40967;SDS011;57377;45.130;6.038;2023-02-15T19:57:20;12.27;;;5.75;;
40967;SDS011;57377;45.130;6.038;2023-02-15T19:59:46;7.13;;;3.55;;
40967;SDS011;57377;45.130;6.038;2023-02-15T20:02:15;9.75;;;3.28;;